sensor_id;sensor_type;location;lat;lon;timestamp;temperature;humidity
20977;DHT22;10647;51.016;3.720;2023-04-23T00:02:09;12.20;99.90
20977;DHT22;10647;51.016;3.720;2023-04-23T00:04:46;12.10;99.90
20977;DHT22;10647;51.016;3.720;2023-04-23T00:07:11;12.10;99.90
20977;DHT22;10647;51.016;3.720;2023-04-23T00:09:41;12.10;99.90
20977;DHT22;10647;51.016;3.720;2023-04-23T00:12:10;12.00;99.90
20977;DHT22;10647;51.016;3.720;2023-04-23T00:14:38;12.00;99.90
20977;DHT22;10647;51.016;3.720;2023-04-23T00:17:05;12.00;99.90
20977;DHT22;10647;51.016;3.720;2023-04-23T00:19:33;12.00;99.90
20977;DHT22;10647;51.016;3.720;2023-04-23T00:22:00;12.00;99.90
20977;DHT22;10647;51.016;3.720;2023-04-23T00:24:28;11.90;99.90
20977;DHT22;10647;51.016;3.720;2023-04-23T00:26:57;11.90;99.90
20977;DHT22;10647;51.016;3.720;2023-04-23T00:29:25;11.80;99.90
20977;DHT22;10647;51.016;3.720;2023-04-23T00:31:58;11.80;99.90
20977;DHT22;10647;51.016;3.720;2023-04-23T00:34:26;11.70;99.90
20977;DHT22;10647;51.016;3.720;2023-04-23T00:36:54;11.70;99.90
20977;DHT22;10647;51.016;3.720;2023-04-23T00:39:22;11.70;99.90
20977;DHT22;10647;51.016;3.720;2023-04-23T00:41:50;11.60;99.90
20977;DHT22;10647;51.016;3.720;2023-04-23T00:44:17;11.60;99.90
20977;DHT22;10647;51.016;3.720;2023-04-23T00:46:45;11.50;99.90
20977;DHT22;10647;51.016;3.720;2023-04-23T00:49:13;11.50;99.90
20977;DHT22;10647;51.016;3.720;2023-04-23T00:51:42;11.50;99.90
20977;DHT22;10647;51.016;3.720;2023-04-23T00:54:10;11.50;99.90
20977;DHT22;10647;51.016;3.720;2023-04-23T00:56:39;11.40;99.90
20977;DHT22;10647;51.016;3.720;2023-04-23T00:59:06;11.40;99.90
20977;DHT22;10647;51.016;3.720;2023-04-23T01:01:34;11.50;99.90
20977;DHT22;10647;51.016;3.720;2023-04-23T01:04:02;11.40;99.90
20977;DHT22;10647;51.016;3.720;2023-04-23T01:06:30;11.40;99.90
20977;DHT22;10647;51.016;3.720;2023-04-23T01:08:58;11.40;99.90
20977;DHT22;10647;51.016;3.720;2023-04-23T01:11:25;11.50;99.90
20977;DHT22;10647;51.016;3.720;2023-04-23T01:13:54;11.50;99.90
20977;DHT22;10647;51.016;3.720;2023-04-23T01:16:21;11.50;99.90
20977;DHT22;10647;51.016;3.720;2023-04-23T01:18:49;11.50;99.90
20977;DHT22;10647;51.016;3.720;2023-04-23T01:21:17;11.50;99.90
20977;DHT22;10647;51.016;3.720;2023-04-23T01:23:45;11.50;99.90
20977;DHT22;10647;51.016;3.720;2023-04-23T01:26:12;11.50;99.90
20977;DHT22;10647;51.016;3.720;2023-04-23T01:28:42;11.50;99.90
20977;DHT22;10647;51.016;3.720;2023-04-23T01:31:11;11.50;99.90
20977;DHT22;10647;51.016;3.720;2023-04-23T01:33:43;11.50;99.90
20977;DHT22;10647;51.016;3.720;2023-04-23T01:36:11;11.50;99.90
20977;DHT22;10647;51.016;3.720;2023-04-23T01:38:39;11.50;99.90
20977;DHT22;10647;51.016;3.720;2023-04-23T01:41:07;11.50;99.90
20977;DHT22;10647;51.016;3.720;2023-04-23T01:43:34;11.50;99.90
20977;DHT22;10647;51.016;3.720;2023-04-23T01:46:02;11.50;99.90
20977;DHT22;10647;51.016;3.720;2023-04-23T01:48:30;11.40;99.90
20977;DHT22;10647;51.016;3.720;2023-04-23T01:50:58;11.40;99.90
20977;DHT22;10647;51.016;3.720;2023-04-23T01:53:26;11.50;99.90
20977;DHT22;10647;51.016;3.720;2023-04-23T01:55:55;11.50;99.90
20977;DHT22;10647;51.016;3.720;2023-04-23T01:58:23;11.70;99.90
20977;DHT22;10647;51.016;3.720;2023-04-23T02:00:51;11.70;99.90
20977;DHT22;10647;51.016;3.720;2023-04-23T02:03:18;11.80;99.90
20977;DHT22;10647;51.016;3.720;2023-04-23T02:05:46;11.80;99.90
20977;DHT22;10647;51.016;3.720;2023-04-23T02:08:14;11.70;99.90
20977;DHT22;10647;51.016;3.720;2023-04-23T02:10:41;11.60;99.90
20977;DHT22;10647;51.016;3.720;2023-04-23T02:13:09;11.60;99.90
20977;DHT22;10647;51.016;3.720;2023-04-23T02:15:36;11.50;99.90
20977;DHT22;10647;51.016;3.720;2023-04-23T02:18:04;11.40;99.90
20977;DHT22;10647;51.016;3.720;2023-04-23T02:20:32;11.40;99.90
20977;DHT22;10647;51.016;3.720;2023-04-23T02:23:01;11.30;99.90
20977;DHT22;10647;51.016;3.720;2023-04-23T02:25:29;11.30;99.90
20977;DHT22;10647;51.016;3.720;2023-04-23T02:27:57;11.20;99.90
20977;DHT22;10647;51.016;3.720;2023-04-23T02:30:27;11.20;99.90
20977;DHT22;10647;51.016;3.720;2023-04-23T02:32:54;11.10;99.90
20977;DHT22;10647;51.016;3.720;2023-04-23T02:35:22;11.10;99.90
20977;DHT22;10647;51.016;3.720;2023-04-23T02:40:40;11.00;99.90
20977;DHT22;10647;51.016;3.720;2023-04-23T02:43:10;10.90;99.90
20977;DHT22;10647;51.016;3.720;2023-04-23T02:45:38;10.90;99.90
20977;DHT22;10647;51.016;3.720;2023-04-23T02:48:05;10.90;99.90
20977;DHT22;10647;51.016;3.720;2023-04-23T02:50:39;10.90;99.90
20977;DHT22;10647;51.016;3.720;2023-04-23T02:53:07;10.80;99.90
20977;DHT22;10647;51.016;3.720;2023-04-23T02:55:34;10.80;99.90
20977;DHT22;10647;51.016;3.720;2023-04-23T02:58:06;10.80;99.90
20977;DHT22;10647;51.016;3.720;2023-04-23T03:00:33;10.80;99.90
20977;DHT22;10647;51.016;3.720;2023-04-23T03:03:12;10.80;99.90
20977;DHT22;10647;51.016;3.720;2023-04-23T03:05:40;10.80;99.90
20977;DHT22;10647;51.016;3.720;2023-04-23T03:08:07;10.80;99.90
20977;DHT22;10647;51.016;3.720;2023-04-23T03:10:35;10.70;99.90
20977;DHT22;10647;51.016;3.720;2023-04-23T03:13:03;10.70;99.90
20977;DHT22;10647;51.016;3.720;2023-04-23T03:15:30;10.70;99.90
20977;DHT22;10647;51.016;3.720;2023-04-23T03:17:59;10.60;99.90
20977;DHT22;10647;51.016;3.720;2023-04-23T03:20:27;10.60;99.90
20977;DHT22;10647;51.016;3.720;2023-04-23T03:22:54;10.60;99.90
20977;DHT22;10647;51.016;3.720;2023-04-23T03:25:24;10.60;99.90
20977;DHT22;10647;51.016;3.720;2023-04-23T03:27:54;10.50;99.90
20977;DHT22;10647;51.016;3.720;2023-04-23T03:30:41;10.50;99.90
20977;DHT22;10647;51.016;3.720;2023-04-23T03:33:09;10.50;99.90
20977;DHT22;10647;51.016;3.720;2023-04-23T03:35:36;10.50;99.90
20977;DHT22;10647;51.016;3.720;2023-04-23T03:38:05;10.50;99.90
20977;DHT22;10647;51.016;3.720;2023-04-23T03:40:32;10.40;99.90
20977;DHT22;10647;51.016;3.720;2023-04-23T03:43:00;10.40;99.90
20977;DHT22;10647;51.016;3.720;2023-04-23T03:48:17;10.40;99.90
20977;DHT22;10647;51.016;3.720;2023-04-23T03:50:47;10.40;99.90
20977;DHT22;10647;51.016;3.720;2023-04-23T03:53:14;10.40;99.90
20977;DHT22;10647;51.016;3.720;2023-04-23T03:55:43;10.40;99.90
20977;DHT22;10647;51.016;3.720;2023-04-23T03:58:11;10.30;99.90
20977;DHT22;10647;51.016;3.720;2023-04-23T04:00:40;10.30;99.90
20977;DHT22;10647;51.016;3.720;2023-04-23T04:03:08;10.30;99.90
20977;DHT22;10647;51.016;3.720;2023-04-23T04:05:35;10.30;99.90
20977;DHT22;10647;51.016;3.720;2023-04-23T04:08:06;10.40;99.90
20977;DHT22;10647;51.016;3.720;2023-04-23T04:10:34;10.40;99.90
20977;DHT22;10647;51.016;3.720;2023-04-23T04:13:01;10.40;99.90
20977;DHT22;10647;51.016;3.720;2023-04-23T04:15:30;10.40;99.90
20977;DHT22;10647;51.016;3.720;2023-04-23T04:17:58;10.40;99.90
20977;DHT22;10647;51.016;3.720;2023-04-23T04:20:27;10.40;99.90
20977;DHT22;10647;51.016;3.720;2023-04-23T04:22:55;10.50;99.90
20977;DHT22;10647;51.016;3.720;2023-04-23T04:25:22;10.50;99.90
20977;DHT22;10647;51.016;3.720;2023-04-23T04:27:53;10.50;99.90
20977;DHT22;10647;51.016;3.720;2023-04-23T04:30:21;10.50;99.90
20977;DHT22;10647;51.016;3.720;2023-04-23T04:32:48;10.50;99.90
20977;DHT22;10647;51.016;3.720;2023-04-23T04:35:16;10.60;99.90
20977;DHT22;10647;51.016;3.720;2023-04-23T04:37:47;10.60;99.90
20977;DHT22;10647;51.016;3.720;2023-04-23T04:40:15;10.60;99.90
20977;DHT22;10647;51.016;3.720;2023-04-23T04:42:42;10.60;99.90
20977;DHT22;10647;51.016;3.720;2023-04-23T04:45:12;10.60;99.90
20977;DHT22;10647;51.016;3.720;2023-04-23T04:47:41;10.60;99.90
20977;DHT22;10647;51.016;3.720;2023-04-23T04:50:09;10.70;99.90
20977;DHT22;10647;51.016;3.720;2023-04-23T04:52:39;10.70;99.90
20977;DHT22;10647;51.016;3.720;2023-04-23T04:55:07;10.80;99.90
20977;DHT22;10647;51.016;3.720;2023-04-23T04:57:35;10.80;99.90
20977;DHT22;10647;51.016;3.720;2023-04-23T05:00:23;10.90;99.90
20977;DHT22;10647;51.016;3.720;2023-04-23T05:02:53;10.90;99.90
20977;DHT22;10647;51.016;3.720;2023-04-23T05:05:22;11.00;99.90
20977;DHT22;10647;51.016;3.720;2023-04-23T05:07:50;11.00;99.90
20977;DHT22;10647;51.016;3.720;2023-04-23T05:10:20;11.10;99.90
20977;DHT22;10647;51.016;3.720;2023-04-23T05:13:07;11.10;99.90
20977;DHT22;10647;51.016;3.720;2023-04-23T05:15:34;11.30;99.90
20977;DHT22;10647;51.016;3.720;2023-04-23T05:18:09;11.30;99.90
20977;DHT22;10647;51.016;3.720;2023-04-23T05:20:37;11.40;99.90
20977;DHT22;10647;51.016;3.720;2023-04-23T05:23:05;11.50;99.90
20977;DHT22;10647;51.016;3.720;2023-04-23T05:25:32;11.60;99.90
20977;DHT22;10647;51.016;3.720;2023-04-23T05:28:01;11.70;99.90
20977;DHT22;10647;51.016;3.720;2023-04-23T05:30:28;11.90;99.90
20977;DHT22;10647;51.016;3.720;2023-04-23T05:32:56;12.00;99.90
20977;DHT22;10647;51.016;3.720;2023-04-23T05:35:23;12.10;99.90
20977;DHT22;10647;51.016;3.720;2023-04-23T05:37:51;12.20;99.90
20977;DHT22;10647;51.016;3.720;2023-04-23T05:40:19;12.30;99.90
20977;DHT22;10647;51.016;3.720;2023-04-23T05:42:46;12.40;99.90
20977;DHT22;10647;51.016;3.720;2023-04-23T05:45:14;12.40;99.90
20977;DHT22;10647;51.016;3.720;2023-04-23T05:47:41;12.50;99.90
20977;DHT22;10647;51.016;3.720;2023-04-23T05:50:09;12.50;99.90
20977;DHT22;10647;51.016;3.720;2023-04-23T05:52:37;12.50;99.90
20977;DHT22;10647;51.016;3.720;2023-04-23T05:55:06;12.50;99.90
20977;DHT22;10647;51.016;3.720;2023-04-23T05:57:36;12.70;99.90
20977;DHT22;10647;51.016;3.720;2023-04-23T06:00:05;12.80;99.90
20977;DHT22;10647;51.016;3.720;2023-04-23T06:02:34;13.00;99.90
20977;DHT22;10647;51.016;3.720;2023-04-23T06:05:02;13.10;99.90
20977;DHT22;10647;51.016;3.720;2023-04-23T06:07:30;13.20;99.90
20977;DHT22;10647;51.016;3.720;2023-04-23T06:09:57;13.30;99.90
20977;DHT22;10647;51.016;3.720;2023-04-23T06:12:25;13.40;99.90
20977;DHT22;10647;51.016;3.720;2023-04-23T06:14:53;13.60;99.90
20977;DHT22;10647;51.016;3.720;2023-04-23T06:17:20;13.70;99.90
20977;DHT22;10647;51.016;3.720;2023-04-23T06:19:48;13.80;99.90
20977;DHT22;10647;51.016;3.720;2023-04-23T06:22:16;13.90;99.90
20977;DHT22;10647;51.016;3.720;2023-04-23T06:24:44;14.10;99.90
20977;DHT22;10647;51.016;3.720;2023-04-23T06:27:12;14.10;99.90
20977;DHT22;10647;51.016;3.720;2023-04-23T06:29:40;14.10;99.90
20977;DHT22;10647;51.016;3.720;2023-04-23T06:32:07;14.20;99.90
20977;DHT22;10647;51.016;3.720;2023-04-23T06:34:35;14.20;99.90
20977;DHT22;10647;51.016;3.720;2023-04-23T06:37:02;14.20;99.90
20977;DHT22;10647;51.016;3.720;2023-04-23T06:39:30;14.40;99.90
20977;DHT22;10647;51.016;3.720;2023-04-23T06:41:57;14.40;99.90
20977;DHT22;10647;51.016;3.720;2023-04-23T06:44:25;14.50;99.90
20977;DHT22;10647;51.016;3.720;2023-04-23T06:46:52;14.60;99.90
20977;DHT22;10647;51.016;3.720;2023-04-23T06:49:20;14.60;99.90
20977;DHT22;10647;51.016;3.720;2023-04-23T06:51:47;14.60;99.90
20977;DHT22;10647;51.016;3.720;2023-04-23T06:54:16;14.60;99.90
20977;DHT22;10647;51.016;3.720;2023-04-23T06:56:43;14.50;99.90
20977;DHT22;10647;51.016;3.720;2023-04-23T06:59:12;14.60;99.90
20977;DHT22;10647;51.016;3.720;2023-04-23T07:01:39;14.70;99.90
20977;DHT22;10647;51.016;3.720;2023-04-23T07:04:13;14.90;99.90
20977;DHT22;10647;51.016;3.720;2023-04-23T07:06:41;14.90;99.90
20977;DHT22;10647;51.016;3.720;2023-04-23T07:09:09;14.90;99.90
20977;DHT22;10647;51.016;3.720;2023-04-23T07:11:37;15.00;99.90
20977;DHT22;10647;51.016;3.720;2023-04-23T07:14:05;15.00;99.90
20977;DHT22;10647;51.016;3.720;2023-04-23T07:16:34;15.20;99.90
20977;DHT22;10647;51.016;3.720;2023-04-23T07:19:05;15.40;99.90
20977;DHT22;10647;51.016;3.720;2023-04-23T07:21:32;15.50;99.90
20977;DHT22;10647;51.016;3.720;2023-04-23T07:24:01;15.60;99.90
20977;DHT22;10647;51.016;3.720;2023-04-23T07:26:35;15.70;99.90
20977;DHT22;10647;51.016;3.720;2023-04-23T07:29:04;15.80;99.90
20977;DHT22;10647;51.016;3.720;2023-04-23T07:31:38;15.90;99.90
20977;DHT22;10647;51.016;3.720;2023-04-23T07:34:07;15.80;99.90
20977;DHT22;10647;51.016;3.720;2023-04-23T07:36:35;15.70;99.90
20977;DHT22;10647;51.016;3.720;2023-04-23T07:39:04;15.80;99.90
20977;DHT22;10647;51.016;3.720;2023-04-23T07:41:31;15.70;99.90
20977;DHT22;10647;51.016;3.720;2023-04-23T07:43:59;15.90;99.90
20977;DHT22;10647;51.016;3.720;2023-04-23T07:46:27;16.10;99.90
20977;DHT22;10647;51.016;3.720;2023-04-23T07:48:54;16.30;99.90
20977;DHT22;10647;51.016;3.720;2023-04-23T07:51:22;16.40;99.90
20977;DHT22;10647;51.016;3.720;2023-04-23T07:53:52;16.40;99.90
20977;DHT22;10647;51.016;3.720;2023-04-23T07:56:20;16.40;99.90
20977;DHT22;10647;51.016;3.720;2023-04-23T07:58:48;16.60;99.90
20977;DHT22;10647;51.016;3.720;2023-04-23T08:01:16;16.70;99.90
20977;DHT22;10647;51.016;3.720;2023-04-23T08:03:45;16.80;99.90
20977;DHT22;10647;51.016;3.720;2023-04-23T08:06:13;16.90;99.90
20977;DHT22;10647;51.016;3.720;2023-04-23T08:08:44;17.10;99.90
20977;DHT22;10647;51.016;3.720;2023-04-23T08:11:11;17.20;99.90
20977;DHT22;10647;51.016;3.720;2023-04-23T08:13:39;17.30;99.90
20977;DHT22;10647;51.016;3.720;2023-04-23T08:16:09;17.50;99.90
20977;DHT22;10647;51.016;3.720;2023-04-23T08:18:36;17.60;99.90
20977;DHT22;10647;51.016;3.720;2023-04-23T08:21:04;17.80;99.90
20977;DHT22;10647;51.016;3.720;2023-04-23T08:23:31;18.00;99.90
20977;DHT22;10647;51.016;3.720;2023-04-23T08:25:59;18.10;99.90
20977;DHT22;10647;51.016;3.720;2023-04-23T08:28:27;18.30;99.90
20977;DHT22;10647;51.016;3.720;2023-04-23T08:30:56;18.50;99.90
20977;DHT22;10647;51.016;3.720;2023-04-23T08:33:23;18.70;99.90
20977;DHT22;10647;51.016;3.720;2023-04-23T08:35:51;18.80;99.90
20977;DHT22;10647;51.016;3.720;2023-04-23T08:38:19;19.00;99.90
20977;DHT22;10647;51.016;3.720;2023-04-23T08:40:51;19.10;99.90
20977;DHT22;10647;51.016;3.720;2023-04-23T08:43:20;19.20;99.90
20977;DHT22;10647;51.016;3.720;2023-04-23T08:45:49;19.30;99.90
20977;DHT22;10647;51.016;3.720;2023-04-23T08:48:17;19.50;99.90
20977;DHT22;10647;51.016;3.720;2023-04-23T08:50:46;19.60;99.90
20977;DHT22;10647;51.016;3.720;2023-04-23T08:53:17;19.60;99.90
20977;DHT22;10647;51.016;3.720;2023-04-23T08:55:45;19.70;99.90
20977;DHT22;10647;51.016;3.720;2023-04-23T08:58:14;19.80;99.90
20977;DHT22;10647;51.016;3.720;2023-04-23T09:00:43;20.00;99.90
20977;DHT22;10647;51.016;3.720;2023-04-23T09:03:11;20.10;99.90
20977;DHT22;10647;51.016;3.720;2023-04-23T09:05:39;20.30;99.90
20977;DHT22;10647;51.016;3.720;2023-04-23T09:08:07;20.50;99.90
20977;DHT22;10647;51.016;3.720;2023-04-23T09:10:36;20.70;99.90
20977;DHT22;10647;51.016;3.720;2023-04-23T09:13:06;20.80;99.90
20977;DHT22;10647;51.016;3.720;2023-04-23T09:15:34;20.80;99.90
20977;DHT22;10647;51.016;3.720;2023-04-23T09:18:03;20.80;99.90
20977;DHT22;10647;51.016;3.720;2023-04-23T09:20:32;20.80;99.90
20977;DHT22;10647;51.016;3.720;2023-04-23T09:22:59;21.00;99.90
20977;DHT22;10647;51.016;3.720;2023-04-23T09:25:27;21.00;99.90
20977;DHT22;10647;51.016;3.720;2023-04-23T09:27:56;21.10;99.90
20977;DHT22;10647;51.016;3.720;2023-04-23T09:30:24;20.90;99.90
20977;DHT22;10647;51.016;3.720;2023-04-23T09:32:55;20.80;99.90
20977;DHT22;10647;51.016;3.720;2023-04-23T09:35:24;20.80;99.90
20977;DHT22;10647;51.016;3.720;2023-04-23T09:38:00;20.70;99.90
20977;DHT22;10647;51.016;3.720;2023-04-23T09:40:29;20.90;99.90
20977;DHT22;10647;51.016;3.720;2023-04-23T09:43:04;21.10;99.90
20977;DHT22;10647;51.016;3.720;2023-04-23T09:45:52;21.20;99.90
20977;DHT22;10647;51.016;3.720;2023-04-23T09:48:20;21.10;99.90
20977;DHT22;10647;51.016;3.720;2023-04-23T09:53:42;21.50;99.90
20977;DHT22;10647;51.016;3.720;2023-04-23T09:56:11;21.60;99.90
20977;DHT22;10647;51.016;3.720;2023-04-23T09:58:39;21.80;99.90
20977;DHT22;10647;51.016;3.720;2023-04-23T10:01:08;21.90;99.90
20977;DHT22;10647;51.016;3.720;2023-04-23T10:03:40;22.00;99.90
20977;DHT22;10647;51.016;3.720;2023-04-23T10:06:05;21.80;99.90
20977;DHT22;10647;51.016;3.720;2023-04-23T10:08:32;21.60;99.90
20977;DHT22;10647;51.016;3.720;2023-04-23T10:11:00;21.40;99.90
20977;DHT22;10647;51.016;3.720;2023-04-23T10:13:29;21.00;99.90
20977;DHT22;10647;51.016;3.720;2023-04-23T10:15:57;20.70;99.90
20977;DHT22;10647;51.016;3.720;2023-04-23T10:18:26;20.20;99.90
20977;DHT22;10647;51.016;3.720;2023-04-23T10:20:54;19.80;99.90
20977;DHT22;10647;51.016;3.720;2023-04-23T10:23:23;19.70;99.90
20977;DHT22;10647;51.016;3.720;2023-04-23T10:25:52;19.80;99.90
20977;DHT22;10647;51.016;3.720;2023-04-23T10:28:22;20.30;99.90
20977;DHT22;10647;51.016;3.720;2023-04-23T10:30:54;20.80;99.90
20977;DHT22;10647;51.016;3.720;2023-04-23T10:33:24;20.80;99.90
20977;DHT22;10647;51.016;3.720;2023-04-23T10:35:54;20.50;99.90
20977;DHT22;10647;51.016;3.720;2023-04-23T10:38:27;20.50;99.90
20977;DHT22;10647;51.016;3.720;2023-04-23T10:40:55;21.00;99.90
20977;DHT22;10647;51.016;3.720;2023-04-23T10:43:24;21.80;99.90
20977;DHT22;10647;51.016;3.720;2023-04-23T10:45:52;22.20;99.90
20977;DHT22;10647;51.016;3.720;2023-04-23T10:48:20;22.30;99.90
20977;DHT22;10647;51.016;3.720;2023-04-23T10:50:56;22.70;99.90
20977;DHT22;10647;51.016;3.720;2023-04-23T10:53:19;23.20;99.90
20977;DHT22;10647;51.016;3.720;2023-04-23T10:55:47;23.60;99.90
20977;DHT22;10647;51.016;3.720;2023-04-23T10:58:14;23.70;99.90
20977;DHT22;10647;51.016;3.720;2023-04-23T11:00:44;23.90;99.90
20977;DHT22;10647;51.016;3.720;2023-04-23T11:03:39;24.10;99.90
20977;DHT22;10647;51.016;3.720;2023-04-23T11:06:03;23.90;99.90
20977;DHT22;10647;51.016;3.720;2023-04-23T11:08:33;24.00;99.90
20977;DHT22;10647;51.016;3.720;2023-04-23T11:11:06;24.20;99.90
20977;DHT22;10647;51.016;3.720;2023-04-23T11:13:54;23.90;99.90
20977;DHT22;10647;51.016;3.720;2023-04-23T11:16:22;23.30;99.20
20977;DHT22;10647;51.016;3.720;2023-04-23T11:19:00;22.80;99.90
20977;DHT22;10647;51.016;3.720;2023-04-23T11:24:39;22.00;99.90
20977;DHT22;10647;51.016;3.720;2023-04-23T11:27:14;21.50;99.90
20977;DHT22;10647;51.016;3.720;2023-04-23T11:29:43;20.80;99.90
20977;DHT22;10647;51.016;3.720;2023-04-23T11:32:14;20.50;99.90
20977;DHT22;10647;51.016;3.720;2023-04-23T11:34:46;20.00;99.90
20977;DHT22;10647;51.016;3.720;2023-04-23T11:37:16;19.80;99.90
20977;DHT22;10647;51.016;3.720;2023-04-23T11:39:45;19.60;99.90
20977;DHT22;10647;51.016;3.720;2023-04-23T11:42:17;19.50;99.90
20977;DHT22;10647;51.016;3.720;2023-04-23T11:44:52;19.60;99.90
20977;DHT22;10647;51.016;3.720;2023-04-23T11:47:26;19.90;99.90
20977;DHT22;10647;51.016;3.720;2023-04-23T11:49:54;20.20;99.90
20977;DHT22;10647;51.016;3.720;2023-04-23T11:52:22;20.20;99.90
20977;DHT22;10647;51.016;3.720;2023-04-23T11:54:50;20.20;99.90
20977;DHT22;10647;51.016;3.720;2023-04-23T11:57:18;20.00;99.90
20977;DHT22;10647;51.016;3.720;2023-04-23T11:59:45;20.00;99.90
20977;DHT22;10647;51.016;3.720;2023-04-23T12:02:13;20.20;99.90
20977;DHT22;10647;51.016;3.720;2023-04-23T12:04:42;20.40;99.90
20977;DHT22;10647;51.016;3.720;2023-04-23T12:07:09;20.50;99.90
20977;DHT22;10647;51.016;3.720;2023-04-23T12:09:37;20.70;99.90
20977;DHT22;10647;51.016;3.720;2023-04-23T12:12:04;20.90;99.90
20977;DHT22;10647;51.016;3.720;2023-04-23T12:14:32;21.00;99.90
20977;DHT22;10647;51.016;3.720;2023-04-23T12:17:08;21.10;99.90
20977;DHT22;10647;51.016;3.720;2023-04-23T12:19:36;21.10;99.90
20977;DHT22;10647;51.016;3.720;2023-04-23T12:22:07;20.90;99.90
20977;DHT22;10647;51.016;3.720;2023-04-23T12:24:50;20.60;99.90
20977;DHT22;10647;51.016;3.720;2023-04-23T12:27:18;20.40;99.90
20977;DHT22;10647;51.016;3.720;2023-04-23T12:29:48;20.20;99.90
20977;DHT22;10647;51.016;3.720;2023-04-23T12:32:16;20.00;99.90
20977;DHT22;10647;51.016;3.720;2023-04-23T12:34:55;19.90;99.90
20977;DHT22;10647;51.016;3.720;2023-04-23T12:37:24;19.70;99.90
20977;DHT22;10647;51.016;3.720;2023-04-23T12:39:52;19.60;99.90
20977;DHT22;10647;51.016;3.720;2023-04-23T12:42:22;19.60;99.90
20977;DHT22;10647;51.016;3.720;2023-04-23T12:44:49;19.60;99.90
20977;DHT22;10647;51.016;3.720;2023-04-23T12:47:18;19.50;99.90
20977;DHT22;10647;51.016;3.720;2023-04-23T12:49:47;19.40;99.90
20977;DHT22;10647;51.016;3.720;2023-04-23T12:52:19;19.30;99.90
20977;DHT22;10647;51.016;3.720;2023-04-23T12:54:47;19.30;99.90
20977;DHT22;10647;51.016;3.720;2023-04-23T12:57:16;19.30;99.90
20977;DHT22;10647;51.016;3.720;2023-04-23T12:59:49;19.20;99.90
20977;DHT22;10647;51.016;3.720;2023-04-23T13:02:17;19.20;99.90
20977;DHT22;10647;51.016;3.720;2023-04-23T13:04:46;19.10;99.90
20977;DHT22;10647;51.016;3.720;2023-04-23T13:07:14;19.10;99.90
20977;DHT22;10647;51.016;3.720;2023-04-23T13:09:41;19.10;99.90
20977;DHT22;10647;51.016;3.720;2023-04-23T13:12:09;18.90;99.90
20977;DHT22;10647;51.016;3.720;2023-04-23T13:14:37;18.80;99.90
20977;DHT22;10647;51.016;3.720;2023-04-23T13:17:06;18.90;99.90
20977;DHT22;10647;51.016;3.720;2023-04-23T13:19:33;18.80;99.90
20977;DHT22;10647;51.016;3.720;2023-04-23T13:22:02;19.00;99.90
20977;DHT22;10647;51.016;3.720;2023-04-23T13:24:30;19.20;99.90
20977;DHT22;10647;51.016;3.720;2023-04-23T13:26:58;19.20;99.90
20977;DHT22;10647;51.016;3.720;2023-04-23T13:29:27;19.40;99.90
20977;DHT22;10647;51.016;3.720;2023-04-23T13:31:55;19.60;99.90
20977;DHT22;10647;51.016;3.720;2023-04-23T13:34:25;19.80;99.90
20977;DHT22;10647;51.016;3.720;2023-04-23T13:36:53;19.90;99.90
20977;DHT22;10647;51.016;3.720;2023-04-23T13:39:21;20.00;99.90
20977;DHT22;10647;51.016;3.720;2023-04-23T13:41:49;20.00;99.90
20977;DHT22;10647;51.016;3.720;2023-04-23T13:44:17;19.90;99.90
20977;DHT22;10647;51.016;3.720;2023-04-23T13:46:45;19.80;99.90
20977;DHT22;10647;51.016;3.720;2023-04-23T13:49:16;19.70;99.90
20977;DHT22;10647;51.016;3.720;2023-04-23T13:51:43;19.50;99.90
20977;DHT22;10647;51.016;3.720;2023-04-23T13:54:11;19.30;99.90
20977;DHT22;10647;51.016;3.720;2023-04-23T13:56:38;19.40;99.90
20977;DHT22;10647;51.016;3.720;2023-04-23T13:59:06;19.40;99.90
20977;DHT22;10647;51.016;3.720;2023-04-23T14:01:33;19.40;99.90
20977;DHT22;10647;51.016;3.720;2023-04-23T14:04:01;19.40;99.90
20977;DHT22;10647;51.016;3.720;2023-04-23T14:06:29;19.40;99.90
20977;DHT22;10647;51.016;3.720;2023-04-23T14:08:57;19.70;99.90
20977;DHT22;10647;51.016;3.720;2023-04-23T14:11:24;20.20;99.90
20977;DHT22;10647;51.016;3.720;2023-04-23T14:13:53;20.70;99.90
20977;DHT22;10647;51.016;3.720;2023-04-23T14:16:21;21.00;99.90
20977;DHT22;10647;51.016;3.720;2023-04-23T14:18:49;21.50;99.90
20977;DHT22;10647;51.016;3.720;2023-04-23T14:21:17;21.80;99.90
20977;DHT22;10647;51.016;3.720;2023-04-23T14:23:59;21.90;99.90
20977;DHT22;10647;51.016;3.720;2023-04-23T14:26:33;22.00;99.90
20977;DHT22;10647;51.016;3.720;2023-04-23T14:29:08;22.00;99.90
20977;DHT22;10647;51.016;3.720;2023-04-23T14:31:43;22.10;99.90
20977;DHT22;10647;51.016;3.720;2023-04-23T14:34:10;22.10;99.90
20977;DHT22;10647;51.016;3.720;2023-04-23T14:36:40;22.00;99.90
20977;DHT22;10647;51.016;3.720;2023-04-23T14:39:07;22.00;99.90
20977;DHT22;10647;51.016;3.720;2023-04-23T14:41:35;22.00;99.90
20977;DHT22;10647;51.016;3.720;2023-04-23T14:44:03;22.10;99.90
20977;DHT22;10647;51.016;3.720;2023-04-23T14:46:30;22.20;99.90
20977;DHT22;10647;51.016;3.720;2023-04-23T14:49:00;22.40;99.90
20977;DHT22;10647;51.016;3.720;2023-04-23T14:51:27;22.50;99.90
20977;DHT22;10647;51.016;3.720;2023-04-23T14:53:55;22.70;99.90
20977;DHT22;10647;51.016;3.720;2023-04-23T14:56:22;22.80;99.90
20977;DHT22;10647;51.016;3.720;2023-04-23T14:58:51;22.90;99.90
20977;DHT22;10647;51.016;3.720;2023-04-23T15:01:18;22.90;99.90
20977;DHT22;10647;51.016;3.720;2023-04-23T15:03:47;22.60;99.90
20977;DHT22;10647;51.016;3.720;2023-04-23T15:06:14;22.20;99.90
20977;DHT22;10647;51.016;3.720;2023-04-23T15:08:43;21.90;99.90
20977;DHT22;10647;51.016;3.720;2023-04-23T15:11:11;21.70;99.90
20977;DHT22;10647;51.016;3.720;2023-04-23T15:13:51;21.30;99.90
20977;DHT22;10647;51.016;3.720;2023-04-23T15:16:19;21.10;99.90
20977;DHT22;10647;51.016;3.720;2023-04-23T15:18:47;20.80;99.90
20977;DHT22;10647;51.016;3.720;2023-04-23T15:21:16;20.70;99.90
20977;DHT22;10647;51.016;3.720;2023-04-23T15:23:44;20.70;99.90
20977;DHT22;10647;51.016;3.720;2023-04-23T15:26:11;20.50;99.90
20977;DHT22;10647;51.016;3.720;2023-04-23T15:28:39;20.20;99.90
20977;DHT22;10647;51.016;3.720;2023-04-23T15:31:06;19.90;99.90
20977;DHT22;10647;51.016;3.720;2023-04-23T15:33:34;19.60;99.90
20977;DHT22;10647;51.016;3.720;2023-04-23T15:36:02;19.40;99.90
20977;DHT22;10647;51.016;3.720;2023-04-23T15:38:30;19.30;99.90
20977;DHT22;10647;51.016;3.720;2023-04-23T15:40:59;19.10;99.90
20977;DHT22;10647;51.016;3.720;2023-04-23T15:43:27;18.80;99.90
20977;DHT22;10647;51.016;3.720;2023-04-23T15:45:54;18.70;99.90
20977;DHT22;10647;51.016;3.720;2023-04-23T15:48:23;18.50;99.90
20977;DHT22;10647;51.016;3.720;2023-04-23T15:50:53;18.30;99.90
20977;DHT22;10647;51.016;3.720;2023-04-23T15:53:20;18.20;99.90